sensor_id;sensor_type;location;lat;lon;timestamp;P1;durP1;ratioP1;P2;durP2;ratioP2
8837;SDS011;4455;50.880;4.698;2022-07-29T00:02:17;2.83;;;1.60;;
8837;SDS011;4455;50.880;4.698;2022-07-29T00:04:44;2.80;;;1.90;;
8837;SDS011;4455;50.880;4.698;2022-07-29T00:07:10;6.40;;;1.80;;
8837;SDS011;4455;50.880;4.698;2022-07-29T00:09:36;2.73;;;1.90;;
8837;SDS011;4455;50.880;4.698;2022-07-29T00:12:02;8.03;;;2.33;;
8837;SDS011;4455;50.880;4.698;2022-07-29T00:14:28;4.80;;;2.30;;
8837;SDS011;4455;50.880;4.698;2022-07-29T00:16:54;3.63;;;2.07;;
8837;SDS011;4455;50.880;4.698;2022-07-29T00:19:20;4.10;;;1.73;;
8837;SDS011;4455;50.880;4.698;2022-07-29T00:21:47;7.83;;;2.30;;
8837;SDS011;4455;50.880;4.698;2022-07-29T00:24:12;2.63;;;1.83;;
8837;SDS011;4455;50.880;4.698;2022-07-29T00:26:38;5.13;;;2.03;;
8837;SDS011;4455;50.880;4.698;2022-07-29T00:29:04;2.57;;;1.73;;
8837;SDS011;4455;50.880;4.698;2022-07-29T00:31:30;2.73;;;2.03;;
8837;SDS011;4455;50.880;4.698;2022-07-29T00:33:57;4.43;;;2.10;;
8837;SDS011;4455;50.880;4.698;2022-07-29T00:36:23;3.43;;;2.10;;
8837;SDS011;4455;50.880;4.698;2022-07-29T00:38:49;5.60;;;2.37;;
8837;SDS011;4455;50.880;4.698;2022-07-29T00:41:16;3.37;;;2.20;;
8837;SDS011;4455;50.880;4.698;2022-07-29T00:43:43;5.07;;;2.17;;
8837;SDS011;4455;50.880;4.698;2022-07-29T00:46:09;4.80;;;2.20;;
8837;SDS011;4455;50.880;4.698;2022-07-29T00:48:36;3.67;;;2.10;;
8837;SDS011;4455;50.880;4.698;2022-07-29T00:51:04;6.03;;;2.40;;
8837;SDS011;4455;50.880;4.698;2022-07-29T00:53:32;3.03;;;2.13;;
8837;SDS011;4455;50.880;4.698;2022-07-29T00:56:00;3.30;;;2.20;;
8837;SDS011;4455;50.880;4.698;2022-07-29T00:58:26;4.03;;;2.00;;
8837;SDS011;4455;50.880;4.698;2022-07-29T01:00:52;4.33;;;1.90;;
8837;SDS011;4455;50.880;4.698;2022-07-29T01:03:18;5.93;;;3.27;;
8837;SDS011;4455;50.880;4.698;2022-07-29T01:05:44;5.00;;;2.20;;
8837;SDS011;4455;50.880;4.698;2022-07-29T01:08:12;3.23;;;2.07;;
8837;SDS011;4455;50.880;4.698;2022-07-29T01:10:40;4.17;;;2.30;;
8837;SDS011;4455;50.880;4.698;2022-07-29T01:13:08;3.33;;;2.17;;
8837;SDS011;4455;50.880;4.698;2022-07-29T01:15:38;4.40;;;2.20;;
8837;SDS011;4455;50.880;4.698;2022-07-29T01:18:16;4.40;;;2.13;;
8837;SDS011;4455;50.880;4.698;2022-07-29T01:23:57;5.80;;;2.63;;
8837;SDS011;4455;50.880;4.698;2022-07-29T01:26:47;6.13;;;2.57;;
8837;SDS011;4455;50.880;4.698;2022-07-29T01:29:28;4.50;;;3.10;;
8837;SDS011;4455;50.880;4.698;2022-07-29T01:32:07;5.37;;;2.13;;
8837;SDS011;4455;50.880;4.698;2022-07-29T01:34:45;8.23;;;2.67;;
8837;SDS011;4455;50.880;4.698;2022-07-29T01:37:26;3.73;;;2.20;;
8837;SDS011;4455;50.880;4.698;2022-07-29T01:39:55;3.13;;;2.17;;
8837;SDS011;4455;50.880;4.698;2022-07-29T01:42:26;4.73;;;2.47;;
8837;SDS011;4455;50.880;4.698;2022-07-29T01:48:31;6.40;;;2.33;;
8837;SDS011;4455;50.880;4.698;2022-07-29T01:51:07;3.10;;;2.10;;
8837;SDS011;4455;50.880;4.698;2022-07-29T01:53:59;4.67;;;1.97;;
8837;SDS011;4455;50.880;4.698;2022-07-29T01:56:31;3.80;;;2.30;;
8837;SDS011;4455;50.880;4.698;2022-07-29T01:59:08;3.40;;;2.10;;
8837;SDS011;4455;50.880;4.698;2022-07-29T02:01:36;5.10;;;2.27;;
8837;SDS011;4455;50.880;4.698;2022-07-29T02:04:06;3.77;;;2.17;;
8837;SDS011;4455;50.880;4.698;2022-07-29T02:06:35;4.33;;;2.30;;
8837;SDS011;4455;50.880;4.698;2022-07-29T02:09:04;3.27;;;2.03;;
8837;SDS011;4455;50.880;4.698;2022-07-29T02:11:34;3.40;;;2.17;;
8837;SDS011;4455;50.880;4.698;2022-07-29T02:14:04;3.20;;;2.03;;
8837;SDS011;4455;50.880;4.698;2022-07-29T02:16:35;4.60;;;2.47;;
8837;SDS011;4455;50.880;4.698;2022-07-29T02:19:05;3.83;;;2.50;;
8837;SDS011;4455;50.880;4.698;2022-07-29T02:21:33;5.20;;;2.37;;
8837;SDS011;4455;50.880;4.698;2022-07-29T02:24:02;6.30;;;2.00;;
8837;SDS011;4455;50.880;4.698;2022-07-29T02:26:31;6.73;;;2.47;;
8837;SDS011;4455;50.880;4.698;2022-07-29T02:28:59;5.20;;;2.10;;
8837;SDS011;4455;50.880;4.698;2022-07-29T02:31:28;3.17;;;2.00;;
8837;SDS011;4455;50.880;4.698;2022-07-29T02:34:01;2.93;;;2.00;;
8837;SDS011;4455;50.880;4.698;2022-07-29T02:36:32;2.83;;;2.17;;
8837;SDS011;4455;50.880;4.698;2022-07-29T02:39:01;5.00;;;2.43;;
8837;SDS011;4455;50.880;4.698;2022-07-29T02:41:39;4.33;;;2.53;;
8837;SDS011;4455;50.880;4.698;2022-07-29T02:50:28;3.97;;;2.47;;
8837;SDS011;4455;50.880;4.698;2022-07-29T02:53:05;3.23;;;2.20;;
8837;SDS011;4455;50.880;4.698;2022-07-29T02:55:48;4.37;;;2.60;;
8837;SDS011;4455;50.880;4.698;2022-07-29T02:58:30;3.70;;;2.20;;
8837;SDS011;4455;50.880;4.698;2022-07-29T03:01:20;3.67;;;2.33;;
8837;SDS011;4455;50.880;4.698;2022-07-29T03:03:56;3.40;;;2.37;;
8837;SDS011;4455;50.880;4.698;2022-07-29T03:06:26;4.83;;;2.47;;
8837;SDS011;4455;50.880;4.698;2022-07-29T03:08:52;5.17;;;2.43;;
8837;SDS011;4455;50.880;4.698;2022-07-29T03:11:20;4.97;;;2.27;;
8837;SDS011;4455;50.880;4.698;2022-07-29T03:13:47;4.47;;;2.43;;
8837;SDS011;4455;50.880;4.698;2022-07-29T03:16:14;6.70;;;2.50;;
8837;SDS011;4455;50.880;4.698;2022-07-29T03:18:41;3.70;;;2.33;;
8837;SDS011;4455;50.880;4.698;2022-07-29T03:21:07;2.50;;;2.00;;
8837;SDS011;4455;50.880;4.698;2022-07-29T03:23:34;4.83;;;2.40;;
8837;SDS011;4455;50.880;4.698;2022-07-29T03:26:00;3.80;;;2.70;;
8837;SDS011;4455;50.880;4.698;2022-07-29T03:28:26;5.17;;;2.37;;
8837;SDS011;4455;50.880;4.698;2022-07-29T03:30:52;6.67;;;2.50;;
8837;SDS011;4455;50.880;4.698;2022-07-29T03:33:19;2.67;;;2.20;;
8837;SDS011;4455;50.880;4.698;2022-07-29T03:35:45;2.90;;;2.17;;
8837;SDS011;4455;50.880;4.698;2022-07-29T03:38:12;6.37;;;2.43;;
8837;SDS011;4455;50.880;4.698;2022-07-29T03:40:56;3.63;;;2.10;;
8837;SDS011;4455;50.880;4.698;2022-07-29T03:43:34;9.87;;;2.53;;
8837;SDS011;4455;50.880;4.698;2022-07-29T03:46:09;2.50;;;2.03;;
8837;SDS011;4455;50.880;4.698;2022-07-29T03:48:39;4.77;;;2.70;;
8837;SDS011;4455;50.880;4.698;2022-07-29T03:51:11;4.03;;;2.43;;
8837;SDS011;4455;50.880;4.698;2022-07-29T03:53:38;5.17;;;2.70;;
8837;SDS011;4455;50.880;4.698;2022-07-29T03:56:04;6.33;;;2.53;;
8837;SDS011;4455;50.880;4.698;2022-07-29T03:58:31;2.53;;;2.10;;
8837;SDS011;4455;50.880;4.698;2022-07-29T04:00:58;6.13;;;2.70;;
8837;SDS011;4455;50.880;4.698;2022-07-29T04:03:26;4.83;;;2.23;;
8837;SDS011;4455;50.880;4.698;2022-07-29T04:05:59;5.00;;;2.43;;
8837;SDS011;4455;50.880;4.698;2022-07-29T04:08:26;6.53;;;2.73;;
8837;SDS011;4455;50.880;4.698;2022-07-29T04:10:52;3.93;;;2.37;;
8837;SDS011;4455;50.880;4.698;2022-07-29T04:13:18;5.90;;;2.53;;
8837;SDS011;4455;50.880;4.698;2022-07-29T04:15:45;5.13;;;2.53;;
8837;SDS011;4455;50.880;4.698;2022-07-29T04:18:11;5.13;;;2.93;;
8837;SDS011;4455;50.880;4.698;2022-07-29T04:20:37;3.27;;;2.40;;
8837;SDS011;4455;50.880;4.698;2022-07-29T04:23:04;4.50;;;2.33;;
8837;SDS011;4455;50.880;4.698;2022-07-29T04:25:31;3.93;;;2.40;;
8837;SDS011;4455;50.880;4.698;2022-07-29T04:27:56;4.73;;;2.83;;
8837;SDS011;4455;50.880;4.698;2022-07-29T04:30:25;2.77;;;2.40;;
8837;SDS011;4455;50.880;4.698;2022-07-29T04:32:51;6.93;;;2.70;;
8837;SDS011;4455;50.880;4.698;2022-07-29T04:35:17;3.83;;;2.37;;
8837;SDS011;4455;50.880;4.698;2022-07-29T04:37:44;7.33;;;2.50;;
8837;SDS011;4455;50.880;4.698;2022-07-29T04:40:09;4.80;;;2.70;;
8837;SDS011;4455;50.880;4.698;2022-07-29T04:42:37;4.63;;;2.57;;
8837;SDS011;4455;50.880;4.698;2022-07-29T04:45:03;4.40;;;2.33;;
8837;SDS011;4455;50.880;4.698;2022-07-29T04:47:29;3.67;;;2.43;;
8837;SDS011;4455;50.880;4.698;2022-07-29T04:49:55;4.50;;;2.70;;
8837;SDS011;4455;50.880;4.698;2022-07-29T04:52:21;3.40;;;2.47;;
8837;SDS011;4455;50.880;4.698;2022-07-29T04:54:48;6.63;;;2.70;;
8837;SDS011;4455;50.880;4.698;2022-07-29T04:57:14;3.33;;;2.43;;
8837;SDS011;4455;50.880;4.698;2022-07-29T04:59:41;4.13;;;2.77;;
8837;SDS011;4455;50.880;4.698;2022-07-29T05:02:07;7.13;;;2.73;;
8837;SDS011;4455;50.880;4.698;2022-07-29T05:04:33;4.37;;;2.83;;
8837;SDS011;4455;50.880;4.698;2022-07-29T05:06:59;5.27;;;2.90;;
8837;SDS011;4455;50.880;4.698;2022-07-29T05:09:24;5.40;;;2.80;;
8837;SDS011;4455;50.880;4.698;2022-07-29T05:11:50;4.57;;;3.00;;
8837;SDS011;4455;50.880;4.698;2022-07-29T05:14:17;3.33;;;2.33;;
8837;SDS011;4455;50.880;4.698;2022-07-29T05:16:43;2.67;;;2.47;;
8837;SDS011;4455;50.880;4.698;2022-07-29T05:19:09;4.50;;;2.87;;
8837;SDS011;4455;50.880;4.698;2022-07-29T05:21:34;5.53;;;2.93;;
8837;SDS011;4455;50.880;4.698;2022-07-29T05:24:00;8.23;;;2.87;;
8837;SDS011;4455;50.880;4.698;2022-07-29T05:26:26;3.57;;;2.90;;
8837;SDS011;4455;50.880;4.698;2022-07-29T05:28:52;4.03;;;2.63;;
8837;SDS011;4455;50.880;4.698;2022-07-29T05:31:19;5.87;;;3.37;;
8837;SDS011;4455;50.880;4.698;2022-07-29T05:33:45;6.07;;;3.27;;
8837;SDS011;4455;50.880;4.698;2022-07-29T05:36:11;5.77;;;3.23;;
8837;SDS011;4455;50.880;4.698;2022-07-29T05:38:37;7.00;;;3.53;;
8837;SDS011;4455;50.880;4.698;2022-07-29T05:41:06;5.67;;;2.77;;
8837;SDS011;4455;50.880;4.698;2022-07-29T05:43:32;7.20;;;3.30;;
8837;SDS011;4455;50.880;4.698;2022-07-29T05:45:58;6.57;;;3.10;;
8837;SDS011;4455;50.880;4.698;2022-07-29T05:48:24;4.80;;;3.30;;
8837;SDS011;4455;50.880;4.698;2022-07-29T05:50:50;4.30;;;3.00;;
8837;SDS011;4455;50.880;4.698;2022-07-29T05:53:16;6.00;;;2.97;;
8837;SDS011;4455;50.880;4.698;2022-07-29T05:55:42;4.33;;;2.93;;
8837;SDS011;4455;50.880;4.698;2022-07-29T05:58:08;7.77;;;3.60;;
8837;SDS011;4455;50.880;4.698;2022-07-29T06:00:33;3.97;;;2.87;;
8837;SDS011;4455;50.880;4.698;2022-07-29T06:03:00;8.67;;;3.57;;
8837;SDS011;4455;50.880;4.698;2022-07-29T06:05:26;6.63;;;3.40;;
8837;SDS011;4455;50.880;4.698;2022-07-29T06:07:52;3.53;;;3.10;;
8837;SDS011;4455;50.880;4.698;2022-07-29T06:10:18;4.80;;;3.20;;
8837;SDS011;4455;50.880;4.698;2022-07-29T06:12:44;3.43;;;3.13;;
8837;SDS011;4455;50.880;4.698;2022-07-29T06:15:11;6.37;;;3.60;;
8837;SDS011;4455;50.880;4.698;2022-07-29T06:17:38;4.80;;;3.50;;
8837;SDS011;4455;50.880;4.698;2022-07-29T06:20:04;5.70;;;3.40;;
8837;SDS011;4455;50.880;4.698;2022-07-29T06:22:31;5.97;;;3.40;;
8837;SDS011;4455;50.880;4.698;2022-07-29T06:24:57;5.73;;;3.27;;
8837;SDS011;4455;50.880;4.698;2022-07-29T06:27:24;9.67;;;4.63;;
8837;SDS011;4455;50.880;4.698;2022-07-29T06:29:50;4.90;;;3.40;;
8837;SDS011;4455;50.880;4.698;2022-07-29T06:32:16;4.87;;;3.23;;
8837;SDS011;4455;50.880;4.698;2022-07-29T06:34:43;4.30;;;3.33;;
8837;SDS011;4455;50.880;4.698;2022-07-29T06:37:09;5.17;;;3.57;;
8837;SDS011;4455;50.880;4.698;2022-07-29T06:39:36;4.23;;;3.40;;
8837;SDS011;4455;50.880;4.698;2022-07-29T06:42:03;5.13;;;4.00;;
8837;SDS011;4455;50.880;4.698;2022-07-29T06:44:30;5.07;;;3.20;;
8837;SDS011;4455;50.880;4.698;2022-07-29T06:47:01;5.13;;;3.50;;
8837;SDS011;4455;50.880;4.698;2022-07-29T06:49:28;3.70;;;3.40;;
8837;SDS011;4455;50.880;4.698;2022-07-29T06:51:54;7.13;;;3.50;;
8837;SDS011;4455;50.880;4.698;2022-07-29T06:54:20;5.30;;;3.60;;
8837;SDS011;4455;50.880;4.698;2022-07-29T06:56:48;4.93;;;3.50;;
8837;SDS011;4455;50.880;4.698;2022-07-29T06:59:13;10.13;;;3.63;;
8837;SDS011;4455;50.880;4.698;2022-07-29T07:01:42;7.07;;;3.57;;
8837;SDS011;4455;50.880;4.698;2022-07-29T07:04:09;3.70;;;3.40;;
8837;SDS011;4455;50.880;4.698;2022-07-29T07:06:35;6.97;;;3.43;;
8837;SDS011;4455;50.880;4.698;2022-07-29T07:09:02;5.97;;;3.53;;
8837;SDS011;4455;50.880;4.698;2022-07-29T07:11:29;4.77;;;3.27;;
8837;SDS011;4455;50.880;4.698;2022-07-29T07:13:55;6.27;;;3.67;;
8837;SDS011;4455;50.880;4.698;2022-07-29T07:16:21;6.57;;;3.70;;
8837;SDS011;4455;50.880;4.698;2022-07-29T07:18:48;8.63;;;3.63;;
8837;SDS011;4455;50.880;4.698;2022-07-29T07:21:14;5.40;;;3.43;;
8837;SDS011;4455;50.880;4.698;2022-07-29T07:23:40;5.60;;;3.30;;
8837;SDS011;4455;50.880;4.698;2022-07-29T07:26:06;8.77;;;3.80;;
8837;SDS011;4455;50.880;4.698;2022-07-29T07:28:32;3.77;;;3.37;;
8837;SDS011;4455;50.880;4.698;2022-07-29T07:31:00;13.67;;;5.03;;
8837;SDS011;4455;50.880;4.698;2022-07-29T07:33:32;4.30;;;3.40;;
8837;SDS011;4455;50.880;4.698;2022-07-29T07:35:58;6.03;;;4.07;;
8837;SDS011;4455;50.880;4.698;2022-07-29T07:38:27;6.97;;;3.63;;
8837;SDS011;4455;50.880;4.698;2022-07-29T07:40:56;5.00;;;3.67;;
8837;SDS011;4455;50.880;4.698;2022-07-29T07:43:24;4.50;;;3.43;;
8837;SDS011;4455;50.880;4.698;2022-07-29T07:45:50;7.60;;;3.70;;
8837;SDS011;4455;50.880;4.698;2022-07-29T07:48:16;5.53;;;3.57;;
8837;SDS011;4455;50.880;4.698;2022-07-29T07:50:42;4.93;;;3.27;;
8837;SDS011;4455;50.880;4.698;2022-07-29T07:53:08;8.07;;;4.50;;
8837;SDS011;4455;50.880;4.698;2022-07-29T07:55:39;6.40;;;4.00;;
8837;SDS011;4455;50.880;4.698;2022-07-29T07:58:09;6.50;;;3.90;;
8837;SDS011;4455;50.880;4.698;2022-07-29T08:00:38;6.27;;;3.80;;
8837;SDS011;4455;50.880;4.698;2022-07-29T08:03:03;3.50;;;3.20;;
8837;SDS011;4455;50.880;4.698;2022-07-29T08:05:29;4.50;;;3.50;;
8837;SDS011;4455;50.880;4.698;2022-07-29T08:07:59;4.50;;;3.53;;
8837;SDS011;4455;50.880;4.698;2022-07-29T08:10:27;5.80;;;3.50;;
8837;SDS011;4455;50.880;4.698;2022-07-29T08:13:11;4.57;;;3.73;;
8837;SDS011;4455;50.880;4.698;2022-07-29T08:15:39;5.50;;;3.80;;
8837;SDS011;4455;50.880;4.698;2022-07-29T08:18:07;4.33;;;3.30;;
8837;SDS011;4455;50.880;4.698;2022-07-29T08:20:34;5.17;;;3.77;;
8837;SDS011;4455;50.880;4.698;2022-07-29T08:23:01;4.47;;;3.40;;
8837;SDS011;4455;50.880;4.698;2022-07-29T08:25:28;5.80;;;3.80;;
8837;SDS011;4455;50.880;4.698;2022-07-29T08:27:54;6.63;;;3.60;;
8837;SDS011;4455;50.880;4.698;2022-07-29T08:30:21;5.70;;;3.70;;
8837;SDS011;4455;50.880;4.698;2022-07-29T08:32:47;6.20;;;3.83;;
8837;SDS011;4455;50.880;4.698;2022-07-29T08:35:15;4.80;;;3.77;;
8837;SDS011;4455;50.880;4.698;2022-07-29T08:37:41;7.27;;;3.47;;
8837;SDS011;4455;50.880;4.698;2022-07-29T08:40:07;4.47;;;3.77;;
8837;SDS011;4455;50.880;4.698;2022-07-29T08:42:34;7.53;;;3.83;;
8837;SDS011;4455;50.880;4.698;2022-07-29T08:45:00;6.43;;;3.70;;
8837;SDS011;4455;50.880;4.698;2022-07-29T08:47:28;5.17;;;3.37;;
8837;SDS011;4455;50.880;4.698;2022-07-29T08:49:59;4.30;;;3.43;;
8837;SDS011;4455;50.880;4.698;2022-07-29T08:52:25;4.37;;;2.93;;
8837;SDS011;4455;50.880;4.698;2022-07-29T08:54:55;5.53;;;3.77;;
8837;SDS011;4455;50.880;4.698;2022-07-29T08:57:24;4.17;;;3.20;;
8837;SDS011;4455;50.880;4.698;2022-07-29T08:59:51;4.73;;;3.17;;
8837;SDS011;4455;50.880;4.698;2022-07-29T09:02:21;4.33;;;3.40;;
8837;SDS011;4455;50.880;4.698;2022-07-29T09:04:49;3.73;;;2.90;;
8837;SDS011;4455;50.880;4.698;2022-07-29T09:07:16;5.73;;;3.50;;
8837;SDS011;4455;50.880;4.698;2022-07-29T09:09:44;4.10;;;3.57;;
8837;SDS011;4455;50.880;4.698;2022-07-29T09:12:10;4.20;;;3.00;;
8837;SDS011;4455;50.880;4.698;2022-07-29T09:14:38;5.00;;;2.77;;
8837;SDS011;4455;50.880;4.698;2022-07-29T09:17:04;2.70;;;2.43;;
8837;SDS011;4455;50.880;4.698;2022-07-29T09:19:31;4.33;;;2.93;;
8837;SDS011;4455;50.880;4.698;2022-07-29T09:22:00;5.03;;;2.60;;
8837;SDS011;4455;50.880;4.698;2022-07-29T09:27:11;3.90;;;2.70;;
8837;SDS011;4455;50.880;4.698;2022-07-29T09:29:48;5.40;;;2.87;;
8837;SDS011;4455;50.880;4.698;2022-07-29T09:32:33;3.80;;;2.73;;
8837;SDS011;4455;50.880;4.698;2022-07-29T09:35:20;3.93;;;2.70;;
8837;SDS011;4455;50.880;4.698;2022-07-29T09:37:47;3.30;;;2.47;;
8837;SDS011;4455;50.880;4.698;2022-07-29T09:40:19;4.40;;;2.20;;
8837;SDS011;4455;50.880;4.698;2022-07-29T09:42:46;4.90;;;2.13;;
8837;SDS011;4455;50.880;4.698;2022-07-29T09:45:13;5.73;;;2.47;;
8837;SDS011;4455;50.880;4.698;2022-07-29T09:48:19;3.73;;;2.37;;
8837;SDS011;4455;50.880;4.698;2022-07-29T09:50:52;3.47;;;2.30;;
8837;SDS011;4455;50.880;4.698;2022-07-29T09:53:32;4.13;;;2.00;;
8837;SDS011;4455;50.880;4.698;2022-07-29T09:56:02;3.93;;;2.10;;
8837;SDS011;4455;50.880;4.698;2022-07-29T09:58:29;3.83;;;2.20;;
8837;SDS011;4455;50.880;4.698;2022-07-29T10:00:59;3.70;;;2.30;;
8837;SDS011;4455;50.880;4.698;2022-07-29T10:03:26;4.03;;;2.47;;
8837;SDS011;4455;50.880;4.698;2022-07-29T10:06:05;2.30;;;2.10;;
8837;SDS011;4455;50.880;4.698;2022-07-29T10:08:33;2.97;;;2.30;;
8837;SDS011;4455;50.880;4.698;2022-07-29T10:11:10;2.90;;;2.20;;
8837;SDS011;4455;50.880;4.698;2022-07-29T10:13:41;3.03;;;2.03;;
8837;SDS011;4455;50.880;4.698;2022-07-29T10:16:15;4.97;;;2.40;;
8837;SDS011;4455;50.880;4.698;2022-07-29T10:18:42;2.43;;;2.23;;
8837;SDS011;4455;50.880;4.698;2022-07-29T10:21:08;3.57;;;2.50;;
8837;SDS011;4455;50.880;4.698;2022-07-29T10:23:36;3.07;;;2.30;;
8837;SDS011;4455;50.880;4.698;2022-07-29T10:26:03;3.67;;;1.77;;
8837;SDS011;4455;50.880;4.698;2022-07-29T10:28:30;3.87;;;2.00;;
8837;SDS011;4455;50.880;4.698;2022-07-29T10:31:04;3.03;;;2.17;;
8837;SDS011;4455;50.880;4.698;2022-07-29T10:42:17;3.20;;;2.43;;
8837;SDS011;4455;50.880;4.698;2022-07-29T10:44:50;3.97;;;2.10;;
8837;SDS011;4455;50.880;4.698;2022-07-29T10:47:24;2.00;;;1.80;;
8837;SDS011;4455;50.880;4.698;2022-07-29T10:49:55;4.53;;;2.20;;
8837;SDS011;4455;50.880;4.698;2022-07-29T10:53:12;5.13;;;2.20;;
8837;SDS011;4455;50.880;4.698;2022-07-29T10:55:39;3.90;;;1.83;;
8837;SDS011;4455;50.880;4.698;2022-07-29T11:00:39;3.07;;;2.03;;
8837;SDS011;4455;50.880;4.698;2022-07-29T11:03:05;2.73;;;2.07;;
8837;SDS011;4455;50.880;4.698;2022-07-29T11:05:52;3.50;;;2.17;;
8837;SDS011;4455;50.880;4.698;2022-07-29T11:08:20;2.50;;;1.80;;
8837;SDS011;4455;50.880;4.698;2022-07-29T11:10:49;3.87;;;1.90;;
8837;SDS011;4455;50.880;4.698;2022-07-29T11:16:18;6.40;;;2.27;;
8837;SDS011;4455;50.880;4.698;2022-07-29T11:21:42;4.13;;;2.50;;
8837;SDS011;4455;50.880;4.698;2022-07-29T11:24:13;4.77;;;2.67;;
8837;SDS011;4455;50.880;4.698;2022-07-29T11:29:54;2.50;;;2.30;;
8837;SDS011;4455;50.880;4.698;2022-07-29T11:32:22;3.60;;;2.30;;
8837;SDS011;4455;50.880;4.698;2022-07-29T11:35:35;4.70;;;2.23;;
8837;SDS011;4455;50.880;4.698;2022-07-29T11:37:39;3.27;;;2.30;;
8837;SDS011;4455;50.880;4.698;2022-07-29T11:45:03;3.83;;;2.40;;
8837;SDS011;4455;50.880;4.698;2022-07-29T11:47:31;4.17;;;2.43;;
8837;SDS011;4455;50.880;4.698;2022-07-29T11:49:59;3.10;;;2.17;;
8837;SDS011;4455;50.880;4.698;2022-07-29T11:52:36;3.23;;;2.13;;
8837;SDS011;4455;50.880;4.698;2022-07-29T11:55:10;2.70;;;2.00;;
8837;SDS011;4455;50.880;4.698;2022-07-29T11:57:44;2.43;;;1.90;;
8837;SDS011;4455;50.880;4.698;2022-07-29T12:00:34;3.50;;;1.90;;
8837;SDS011;4455;50.880;4.698;2022-07-29T12:03:04;4.33;;;2.50;;
8837;SDS011;4455;50.880;4.698;2022-07-29T12:05:32;3.23;;;2.20;;
8837;SDS011;4455;50.880;4.698;2022-07-29T12:08:09;5.30;;;2.37;;
8837;SDS011;4455;50.880;4.698;2022-07-29T12:10:38;6.67;;;2.27;;
8837;SDS011;4455;50.880;4.698;2022-07-29T12:13:05;7.03;;;2.20;;
8837;SDS011;4455;50.880;4.698;2022-07-29T12:15:32;5.33;;;2.50;;
8837;SDS011;4455;50.880;4.698;2022-07-29T12:17:58;2.33;;;2.13;;
8837;SDS011;4455;50.880;4.698;2022-07-29T12:20:25;4.80;;;2.40;;
8837;SDS011;4455;50.880;4.698;2022-07-29T12:22:53;3.60;;;2.77;;
8837;SDS011;4455;50.880;4.698;2022-07-29T12:25:20;4.63;;;2.57;;
8837;SDS011;4455;50.880;4.698;2022-07-29T12:27:47;4.30;;;2.70;;
8837;SDS011;4455;50.880;4.698;2022-07-29T12:30:23;3.00;;;2.17;;
8837;SDS011;4455;50.880;4.698;2022-07-29T12:33:16;7.43;;;2.20;;
8837;SDS011;4455;50.880;4.698;2022-07-29T12:36:00;3.90;;;2.33;;
8837;SDS011;4455;50.880;4.698;2022-07-29T12:38:26;4.23;;;2.23;;
8837;SDS011;4455;50.880;4.698;2022-07-29T12:40:53;2.73;;;2.10;;
8837;SDS011;4455;50.880;4.698;2022-07-29T12:43:23;5.20;;;2.33;;
8837;SDS011;4455;50.880;4.698;2022-07-29T12:45:52;6.27;;;2.27;;
8837;SDS011;4455;50.880;4.698;2022-07-29T12:48:34;2.93;;;2.27;;
8837;SDS011;4455;50.880;4.698;2022-07-29T12:51:06;2.77;;;2.30;;
8837;SDS011;4455;50.880;4.698;2022-07-29T12:53:33;5.00;;;2.50;;
8837;SDS011;4455;50.880;4.698;2022-07-29T12:56:02;7.33;;;2.20;;
8837;SDS011;4455;50.880;4.698;2022-07-29T12:58:33;5.03;;;2.30;;
8837;SDS011;4455;50.880;4.698;2022-07-29T13:06:30;4.87;;;2.10;;
8837;SDS011;4455;50.880;4.698;2022-07-29T13:09:03;6.40;;;2.00;;
8837;SDS011;4455;50.880;4.698;2022-07-29T13:11:37;3.17;;;1.97;;
8837;SDS011;4455;50.880;4.698;2022-07-29T13:14:06;3.60;;;2.30;;
8837;SDS011;4455;50.880;4.698;2022-07-29T13:19:42;3.27;;;2.00;;
8837;SDS011;4455;50.880;4.698;2022-07-29T13:22:13;2.67;;;2.10;;
8837;SDS011;4455;50.880;4.698;2022-07-29T13:24:48;4.07;;;2.20;;
8837;SDS011;4455;50.880;4.698;2022-07-29T13:27:28;2.23;;;1.90;;
8837;SDS011;4455;50.880;4.698;2022-07-29T13:29:58;2.77;;;2.20;;
8837;SDS011;4455;50.880;4.698;2022-07-29T13:32:26;3.33;;;2.00;;
8837;SDS011;4455;50.880;4.698;2022-07-29T13:34:57;3.60;;;2.20;;
8837;SDS011;4455;50.880;4.698;2022-07-29T13:37:25;3.50;;;1.90;;
8837;SDS011;4455;50.880;4.698;2022-07-29T13:39:53;4.43;;;2.20;;
8837;SDS011;4455;50.880;4.698;2022-07-29T13:42:22;4.73;;;2.60;;
8837;SDS011;4455;50.880;4.698;2022-07-29T13:44:49;3.67;;;2.30;;
8837;SDS011;4455;50.880;4.698;2022-07-29T13:47:20;4.00;;;2.30;;
8837;SDS011;4455;50.880;4.698;2022-07-29T13:49:47;3.40;;;2.30;;
8837;SDS011;4455;50.880;4.698;2022-07-29T13:52:14;8.53;;;2.57;;
8837;SDS011;4455;50.880;4.698;2022-07-29T13:54:40;3.60;;;2.80;;
8837;SDS011;4455;50.880;4.698;2022-07-29T13:57:08;4.87;;;2.23;;
8837;SDS011;4455;50.880;4.698;2022-07-29T13:59:38;4.43;;;2.27;;
8837;SDS011;4455;50.880;4.698;2022-07-29T14:02:06;3.87;;;2.20;;
8837;SDS011;4455;50.880;4.698;2022-07-29T14:04:33;4.23;;;2.50;;
8837;SDS011;4455;50.880;4.698;2022-07-29T14:06:59;3.53;;;2.00;;
8837;SDS011;4455;50.880;4.698;2022-07-29T14:09:25;4.70;;;2.50;;
8837;SDS011;4455;50.880;4.698;2022-07-29T14:11:53;3.67;;;2.37;;
8837;SDS011;4455;50.880;4.698;2022-07-29T14:14:23;5.40;;;2.50;;
8837;SDS011;4455;50.880;4.698;2022-07-29T14:16:50;4.70;;;2.37;;
8837;SDS011;4455;50.880;4.698;2022-07-29T14:19:16;3.97;;;2.97;;
8837;SDS011;4455;50.880;4.698;2022-07-29T14:21:42;3.43;;;2.70;;
8837;SDS011;4455;50.880;4.698;2022-07-29T14:24:08;6.90;;;2.80;;
8837;SDS011;4455;50.880;4.698;2022-07-29T14:26:35;6.63;;;3.47;;
8837;SDS011;4455;50.880;4.698;2022-07-29T14:29:01;4.10;;;3.13;;
8837;SDS011;4455;50.880;4.698;2022-07-29T14:31:28;8.37;;;3.53;;
8837;SDS011;4455;50.880;4.698;2022-07-29T14:33:55;5.40;;;3.67;;
8837;SDS011;4455;50.880;4.698;2022-07-29T14:36:21;5.83;;;3.33;;
8837;SDS011;4455;50.880;4.698;2022-07-29T14:38:47;6.67;;;3.70;;
8837;SDS011;4455;50.880;4.698;2022-07-29T14:41:14;5.87;;;3.70;;
8837;SDS011;4455;50.880;4.698;2022-07-29T14:43:42;6.83;;;3.63;;
8837;SDS011;4455;50.880;4.698;2022-07-29T14:46:07;3.40;;;3.10;;
8837;SDS011;4455;50.880;4.698;2022-07-29T14:48:35;5.40;;;3.30;;
8837;SDS011;4455;50.880;4.698;2022-07-29T14:51:00;4.23;;;2.70;;
8837;SDS011;4455;50.880;4.698;2022-07-29T14:53:26;5.67;;;3.57;;
8837;SDS011;4455;50.880;4.698;2022-07-29T14:55:53;5.10;;;2.90;;
8837;SDS011;4455;50.880;4.698;2022-07-29T14:58:19;5.57;;;2.67;;
8837;SDS011;4455;50.880;4.698;2022-07-29T15:00:47;4.03;;;2.60;;
8837;SDS011;4455;50.880;4.698;2022-07-29T15:03:13;4.20;;;2.60;;
8837;SDS011;4455;50.880;4.698;2022-07-29T15:05:39;5.63;;;2.73;;
8837;SDS011;4455;50.880;4.698;2022-07-29T15:08:06;5.37;;;2.70;;
8837;SDS011;4455;50.880;4.698;2022-07-29T15:10:33;2.97;;;2.67;;
8837;SDS011;4455;50.880;4.698;2022-07-29T15:12:59;3.60;;;2.83;;
8837;SDS011;4455;50.880;4.698;2022-07-29T15:15:26;3.77;;;3.00;;
8837;SDS011;4455;50.880;4.698;2022-07-29T15:17:52;4.80;;;2.90;;
8837;SDS011;4455;50.880;4.698;2022-07-29T15:20:18;5.77;;;2.57;;
8837;SDS011;4455;50.880;4.698;2022-07-29T15:22:43;6.43;;;3.17;;
8837;SDS011;4455;50.880;4.698;2022-07-29T15:25:09;4.07;;;2.40;;
8837;SDS011;4455;50.880;4.698;2022-07-29T15:27:35;4.47;;;2.63;;
8837;SDS011;4455;50.880;4.698;2022-07-29T15:30:01;4.83;;;2.53;;
8837;SDS011;4455;50.880;4.698;2022-07-29T15:32:29;4.43;;;2.33;;
8837;SDS011;4455;50.880;4.698;2022-07-29T15:35:01;5.30;;;2.70;;
8837;SDS011;4455;50.880;4.698;2022-07-29T15:37:29;8.37;;;2.80;;
8837;SDS011;4455;50.880;4.698;2022-07-29T15:39:56;6.60;;;2.73;;
8837;SDS011;4455;50.880;4.698;2022-07-29T15:42:23;4.47;;;2.37;;
8837;SDS011;4455;50.880;4.698;2022-07-29T15:44:50;5.50;;;2.37;;
8837;SDS011;4455;50.880;4.698;2022-07-29T15:47:16;6.07;;;2.63;;
8837;SDS011;4455;50.880;4.698;2022-07-29T15:49:41;2.97;;;2.23;;
8837;SDS011;4455;50.880;4.698;2022-07-29T15:52:09;4.53;;;2.30;;
8837;SDS011;4455;50.880;4.698;2022-07-29T15:54:36;4.43;;;2.60;;
8837;SDS011;4455;50.880;4.698;2022-07-29T15:57:08;3.33;;;2.17;;
8837;SDS011;4455;50.880;4.698;2022-07-29T15:59:35;2.63;;;2.10;;
8837;SDS011;4455;50.880;4.698;2022-07-29T16:02:01;2.97;;;2.33;;
8837;SDS011;4455;50.880;4.698;2022-07-29T16:04:28;4.10;;;2.17;;
8837;SDS011;4455;50.880;4.698;2022-07-29T16:06:56;5.50;;;2.90;;
8837;SDS011;4455;50.880;4.698;2022-07-29T16:09:22;2.97;;;2.50;;
8837;SDS011;4455;50.880;4.698;2022-07-29T16:11:49;3.07;;;2.40;;
8837;SDS011;4455;50.880;4.698;2022-07-29T16:14:24;4.90;;;2.50;;
8837;SDS011;4455;50.880;4.698;2022-07-29T16:16:51;2.97;;;2.10;;